Time;durP1;ratioP1;P1;durP2;ratioP2;P2;SDS_P1;SDS_P2;PMS_P1;PMS_P2;Temp;Humidity;BMP_temperature;BMP_pressure;BME280_temperature;BME280_humidity;BME280_pressure;Samples;Min_cycle;Max_cycle;Signal;HPM_P1;HPM_P2
2023/07/12 00:00:47;;;;;;;5.30;4.80;;;21.40;99.90;;;;;;4992299;28;20507;-59
2023/07/12 00:03:15;;;;;;;5.33;4.83;;;21.30;99.90;;;;;;4995145;28;20569;-59
2023/07/12 00:05:44;;;;;;;5.60;4.83;;;21.40;99.90;;;;;;4999350;28;20976;-61
2023/07/12 00:08:19;;;;;;;8.13;5.10;;;21.40;99.90;;;;;;4997090;28;20488;-60
2023/07/12 00:10:48;;;;;;;5.30;4.80;;;21.40;99.90;;;;;;4987352;28;20472;-60
2023/07/12 00:13:18;;;;;;;6.87;4.80;;;21.40;99.90;;;;;;4991733;28;20538;-59
2023/07/12 00:15:47;;;;;;;5.97;5.50;;;21.30;99.90;;;;;;4985722;28;21020;-59
2023/07/12 00:18:17;;;;;;;6.13;5.63;;;21.30;99.90;;;;;;4992949;28;20579;-59
2023/07/12 00:20:47;;;;;;;7.17;5.13;;;21.30;99.90;;;;;;4993753;28;20518;-60
2023/07/12 00:23:17;;;;;;;5.60;5.10;;;21.30;99.90;;;;;;4996800;28;20579;-59
2023/07/12 00:25:48;;;;;;;8.07;5.53;;;21.30;99.90;;;;;;4990610;28;20477;-59
2023/07/12 00:28:22;;;;;;;5.17;4.80;;;21.30;99.90;;;;;;4987043;28;20496;-59
2023/07/12 00:30:51;;;;;;;5.40;4.90;;;21.30;99.90;;;;;;4986710;28;20514;-59
2023/07/12 00:33:20;;;;;;;9.47;5.50;;;21.30;99.90;;;;;;4987514;28;23301;-60
2023/07/12 00:35:48;;;;;;;10.23;6.17;;;21.30;99.90;;;;;;4988252;28;20479;-60
2023/07/12 00:38:20;;;;;;;5.20;4.80;;;21.20;99.90;;;;;;4987282;28;20498;-58
2023/07/12 00:41:17;;;;;;;13.87;5.93;;;21.20;99.90;;;;;;4984558;28;20535;-58
2023/07/12 00:43:49;;;;;;;7.47;6.20;;;21.10;99.90;;;;;;4972517;28;20510;-59
2023/07/12 00:46:21;;;;;;;6.50;5.90;;;21.20;99.90;;;;;;4988105;28;20910;-60
2023/07/12 00:48:50;;;;;;;6.70;5.97;;;21.10;99.90;;;;;;4984926;28;20556;-59
2023/07/12 00:51:38;;;;;;;11.30;6.40;;;21.10;99.90;;;;;;4988608;28;20453;-59
2023/07/12 00:54:13;;;;;;;6.87;6.00;;;21.00;99.90;;;;;;4985902;28;20503;-59
2023/07/12 00:56:41;;;;;;;6.60;6.00;;;20.90;99.90;;;;;;4992854;28;20564;-59
2023/07/12 00:59:14;;;;;;;7.50;6.07;;;20.80;99.90;;;;;;4988177;28;21018;-59
2023/07/12 01:01:43;;;;;;;6.33;5.70;;;20.70;99.90;;;;;;4991331;28;20473;-60
2023/07/12 01:04:15;;;;;;;6.63;5.90;;;20.60;99.90;;;;;;4991231;28;20504;-59
2023/07/12 01:06:43;;;;;;;5.70;5.20;;;20.50;99.90;;;;;;4989300;28;20492;-60
2023/07/12 01:09:16;;;;;;;5.47;4.97;;;20.40;99.90;;;;;;4986332;28;20600;-59
2023/07/12 01:11:45;;;;;;;6.60;5.50;;;20.40;99.90;;;;;;4990323;28;20485;-58
2023/07/12 01:14:15;;;;;;;5.10;4.70;;;20.30;99.90;;;;;;4987673;28;20479;-58
2023/07/12 01:16:48;;;;;;;5.00;4.57;;;20.20;99.90;;;;;;4982247;28;20617;-58
2023/07/12 01:19:16;;;;;;;4.90;4.47;;;20.20;99.90;;;;;;4987094;28;20531;-58
2023/07/12 01:21:47;;;;;;;5.10;4.60;;;20.10;99.90;;;;;;4988431;28;20506;-58
2023/07/12 01:24:16;;;;;;;5.67;5.13;;;20.10;99.90;;;;;;4983487;28;20599;-57
2023/07/12 01:26:46;;;;;;;10.20;4.57;;;20.10;99.90;;;;;;4991125;28;20980;-58
2023/07/12 01:29:15;;;;;;;5.43;4.70;;;20.10;99.90;;;;;;4985765;28;20465;-58
2023/07/12 01:31:43;;;;;;;4.93;4.40;;;20.10;99.90;;;;;;4983478;28;20531;-58
2023/07/12 01:34:12;;;;;;;4.87;4.40;;;20.10;99.90;;;;;;4987801;28;20576;-58
2023/07/12 01:36:40;;;;;;;4.60;4.20;;;20.00;99.90;;;;;;4984432;28;20520;-58
2023/07/12 01:39:10;;;;;;;5.13;4.70;;;19.90;99.90;;;;;;4985166;28;20583;-58
2023/07/12 01:41:38;;;;;;;4.53;4.07;;;19.90;99.90;;;;;;4988229;28;20575;-59
2023/07/12 01:44:07;;;;;;;5.23;4.70;;;19.90;99.90;;;;;;4986590;28;20504;-58
2023/07/12 01:46:35;;;;;;;5.40;4.63;;;19.80;99.90;;;;;;4979749;28;21029;-58
2023/07/12 01:49:03;;;;;;;4.50;4.10;;;19.70;99.90;;;;;;4989835;28;20472;-59
2023/07/12 01:51:31;;;;;;;6.63;4.40;;;19.60;99.90;;;;;;4992343;28;20559;-57
2023/07/12 01:53:59;;;;;;;4.37;3.97;;;19.60;99.90;;;;;;4992678;28;20506;-57
2023/07/12 01:56:29;;;;;;;4.13;3.73;;;19.60;99.90;;;;;;4993919;28;20489;-57
2023/07/12 01:58:57;;;;;;;3.77;3.47;;;19.50;99.90;;;;;;4995355;28;20574;-60
2023/07/12 02:01:25;;;;;;;5.30;3.97;;;19.50;99.90;;;;;;4994902;28;20521;-57
2023/07/12 02:03:53;;;;;;;3.40;3.10;;;19.50;99.90;;;;;;4988460;28;20604;-57
2023/07/12 02:06:21;;;;;;;3.67;2.83;;;19.40;99.90;;;;;;4994921;28;20468;-60
2023/07/12 02:08:49;;;;;;;3.27;2.80;;;19.40;99.90;;;;;;4989880;28;20564;-61
2023/07/12 02:11:17;;;;;;;2.63;2.43;;;19.50;99.90;;;;;;4996514;28;20594;-61
2023/07/12 02:13:46;;;;;;;3.80;2.60;;;19.50;99.90;;;;;;4993248;28;20498;-61
2023/07/12 02:16:14;;;;;;;2.77;2.20;;;19.40;99.90;;;;;;4990458;28;20567;-58
2023/07/12 02:18:42;;;;;;;3.10;2.80;;;19.30;99.90;;;;;;4992931;28;20550;-60
2023/07/12 02:21:10;;;;;;;2.40;2.20;;;19.20;99.90;;;;;;4997307;28;20477;-58
2023/07/12 02:23:38;;;;;;;3.23;2.67;;;19.20;99.90;;;;;;5002097;28;20506;-58
2023/07/12 02:26:06;;;;;;;3.07;2.70;;;19.20;99.90;;;;;;4994796;28;20464;-60
2023/07/12 02:28:34;;;;;;;3.37;2.60;;;19.20;99.90;;;;;;4990096;28;20523;-58
2023/07/12 02:31:20;;;;;;;3.03;2.53;;;19.20;99.90;;;;;;4991841;28;20477;-58
2023/07/12 02:33:48;;;;;;;2.83;2.50;;;19.20;99.90;;;;;;4993088;28;20571;-60
2023/07/12 02:36:17;;;;;;;2.77;2.43;;;19.20;99.90;;;;;;4985179;28;20534;-60
2023/07/12 02:38:46;;;;;;;2.60;2.40;;;19.10;99.90;;;;;;4989304;28;20491;-60
2023/07/12 02:41:15;;;;;;;2.30;2.10;;;19.00;99.90;;;;;;4990341;28;20973;-59
2023/07/12 02:43:44;;;;;;;2.63;2.37;;;19.00;99.90;;;;;;4990537;28;20523;-60
2023/07/12 02:46:12;;;;;;;2.83;1.97;;;19.00;99.90;;;;;;4984815;28;20605;-58
2023/07/12 02:48:41;;;;;;;2.43;2.20;;;19.00;99.90;;;;;;4989248;28;20614;-57
2023/07/12 02:51:09;;;;;;;2.60;2.40;;;19.00;99.90;;;;;;4995055;28;20501;-58
2023/07/12 02:53:38;;;;;;;2.50;2.30;;;19.00;99.90;;;;;;4991311;28;20527;-59
2023/07/12 02:56:08;;;;;;;2.30;2.20;;;19.00;99.90;;;;;;4987049;28;20996;-57
2023/07/12 02:58:37;;;;;;;2.67;2.47;;;19.00;99.90;;;;;;4988058;28;20493;-57
2023/07/12 03:01:05;;;;;;;2.23;2.03;;;19.00;99.90;;;;;;4989774;28;20469;-58
2023/07/12 03:03:34;;;;;;;2.17;1.97;;;19.00;99.90;;;;;;4986209;28;20851;-58
2023/07/12 03:06:08;;;;;;;2.50;2.30;;;19.00;99.90;;;;;;4988824;28;20504;-59
2023/07/12 03:08:37;;;;;;;2.60;2.33;;;18.90;99.90;;;;;;4989175;28;20491;-59
2023/07/12 03:11:06;;;;;;;2.60;2.40;;;18.90;99.90;;;;;;4991700;28;20492;-58
2023/07/12 03:13:34;;;;;;;2.40;2.20;;;18.90;99.90;;;;;;4986777;28;20491;-58
2023/07/12 03:16:04;;;;;;;2.40;2.20;;;18.90;99.90;;;;;;4988547;28;20465;-58
2023/07/12 03:18:32;;;;;;;2.83;2.27;;;18.90;99.90;;;;;;4990158;28;20489;-58
2023/07/12 03:21:01;;;;;;;2.40;2.20;;;18.90;99.90;;;;;;4990099;28;20552;-58
2023/07/12 03:23:32;;;;;;;2.33;2.13;;;18.90;99.90;;;;;;4990904;28;20503;-58
2023/07/12 03:26:00;;;;;;;4.00;2.60;;;18.90;99.90;;;;;;4985759;28;20469;-58
2023/07/12 03:28:28;;;;;;;9.57;2.57;;;18.90;99.90;;;;;;4984215;28;20491;-58
2023/07/12 03:31:01;;;;;;;2.63;2.43;;;18.90;99.90;;;;;;4992203;28;20564;-58
2023/07/12 03:33:30;;;;;;;3.27;2.07;;;18.90;99.90;;;;;;4991228;28;21050;-58
2023/07/12 03:35:59;;;;;;;2.50;2.30;;;18.90;99.90;;;;;;4992025;28;20875;-57
2023/07/12 03:38:30;;;;;;;2.67;2.47;;;18.90;99.90;;;;;;4989881;28;20498;-58
2023/07/12 03:41:03;;;;;;;2.50;2.30;;;18.90;99.90;;;;;;4989973;28;21031;-59
2023/07/12 03:43:32;;;;;;;3.27;2.60;;;18.90;99.90;;;;;;4987062;28;20932;-59
2023/07/12 03:46:00;;;;;;;2.77;2.57;;;18.90;99.90;;;;;;4992204;28;20497;-59
2023/07/12 03:48:29;;;;;;;2.60;2.40;;;18.90;99.90;;;;;;4994510;28;21510;-58
2023/07/12 03:50:57;;;;;;;2.83;2.60;;;18.90;99.90;;;;;;4991447;28;20993;-59
2023/07/12 03:53:26;;;;;;;3.40;2.70;;;18.90;99.90;;;;;;4994176;28;20595;-58
2023/07/12 03:56:00;;;;;;;4.10;2.60;;;18.90;99.90;;;;;;4992975;28;20540;-58
2023/07/12 03:58:32;;;;;;;2.97;2.57;;;18.90;99.90;;;;;;4991472;28;21120;-58
2023/07/12 04:01:03;;;;;;;2.87;2.67;;;19.00;99.90;;;;;;4996207;28;20468;-58
2023/07/12 04:03:32;;;;;;;2.97;2.63;;;18.90;99.90;;;;;;4995398;28;20552;-59
2023/07/12 04:06:01;;;;;;;2.60;2.40;;;18.90;99.90;;;;;;4997047;28;21017;-58
2023/07/12 04:08:29;;;;;;;2.90;2.70;;;18.90;99.90;;;;;;4993805;28;20484;-58
2023/07/12 04:10:58;;;;;;;3.23;2.93;;;18.90;99.90;;;;;;4996341;28;20546;-58
2023/07/12 04:13:26;;;;;;;4.27;2.73;;;18.90;99.90;;;;;;4988582;28;20497;-58
2023/07/12 04:15:57;;;;;;;2.60;2.40;;;18.90;99.90;;;;;;4993866;28;20552;-58
2023/07/12 04:18:26;;;;;;;4.43;2.90;;;18.90;99.90;;;;;;4990496;28;20496;-58
2023/07/12 04:20:55;;;;;;;3.43;3.13;;;18.90;99.90;;;;;;4994051;28;20473;-58
2023/07/12 04:23:23;;;;;;;3.03;2.83;;;18.90;99.90;;;;;;4998473;28;21064;-59
2023/07/12 04:25:58;;;;;;;2.77;2.57;;;18.90;99.90;;;;;;4990509;28;20579;-59
2023/07/12 04:28:27;;;;;;;3.53;3.23;;;18.80;99.90;;;;;;4987583;28;21095;-58
2023/07/12 04:30:56;;;;;;;3.07;2.77;;;18.80;99.90;;;;;;4989641;28;20477;-59
2023/07/12 04:33:24;;;;;;;3.30;3.00;;;18.80;99.90;;;;;;4989043;28;20492;-59
2023/07/12 04:35:52;;;;;;;2.80;2.60;;;18.80;99.90;;;;;;4989924;28;20469;-58
2023/07/12 04:38:20;;;;;;;4.13;3.73;;;18.80;99.90;;;;;;4988373;28;20867;-59
2023/07/12 04:40:53;;;;;;;3.07;2.83;;;18.80;99.90;;;;;;4988838;28;20944;-58
2023/07/12 04:43:22;;;;;;;5.00;3.43;;;18.90;99.90;;;;;;4985502;28;20563;-59
2023/07/12 04:45:50;;;;;;;4.00;3.70;;;18.90;99.90;;;;;;4987510;28;20601;-58
2023/07/12 04:48:20;;;;;;;4.90;4.30;;;18.90;99.90;;;;;;4976637;28;22487;-59
2023/07/12 04:50:51;;;;;;;5.30;4.33;;;18.90;99.90;;;;;;4985365;28;20488;-60
2023/07/12 04:53:19;;;;;;;4.57;4.13;;;18.90;99.90;;;;;;4988191;28;20485;-60
2023/07/12 04:55:50;;;;;;;5.03;4.53;;;19.00;99.90;;;;;;4987995;28;20567;-60
2023/07/12 04:58:19;;;;;;;4.70;4.30;;;18.90;99.90;;;;;;4983987;28;21187;-61
2023/07/12 05:00:46;;;;;;;5.20;4.70;;;19.00;99.90;;;;;;4982279;28;20468;-60
2023/07/12 05:03:15;;;;;;;4.90;4.03;;;19.00;99.90;;;;;;4988679;28;20496;-59
2023/07/12 05:05:45;;;;;;;3.80;3.60;;;19.00;99.90;;;;;;4982614;28;21503;-60
2023/07/12 05:08:15;;;;;;;4.60;4.30;;;19.00;99.90;;;;;;4984551;28;21031;-61
2023/07/12 05:10:43;;;;;;;3.93;3.63;;;19.10;99.90;;;;;;4983373;28;20591;-59
2023/07/12 05:13:11;;;;;;;4.20;3.90;;;19.10;99.90;;;;;;4984042;28;21281;-59
2023/07/12 05:15:39;;;;;;;5.73;3.70;;;19.10;99.90;;;;;;4983946;28;20487;-60
2023/07/12 05:18:08;;;;;;;3.70;3.37;;;19.20;99.90;;;;;;4979045;28;20889;-60
2023/07/12 05:20:37;;;;;;;4.53;4.10;;;19.20;99.90;;;;;;4980681;28;20527;-61
2023/07/12 05:23:06;;;;;;;4.13;3.70;;;19.10;99.90;;;;;;4981684;28;20502;-59
2023/07/12 05:25:34;;;;;;;5.10;3.83;;;19.10;99.90;;;;;;4993056;28;20577;-60
2023/07/12 05:28:02;;;;;;;3.90;3.60;;;19.10;99.90;;;;;;4984228;28;20583;-60
2023/07/12 05:30:31;;;;;;;3.47;3.27;;;19.10;99.90;;;;;;4987777;28;20479;-60
2023/07/12 05:32:59;;;;;;;3.57;3.27;;;19.20;99.90;;;;;;4985139;28;20594;-59
2023/07/12 05:35:27;;;;;;;4.30;3.90;;;19.20;99.90;;;;;;4993035;28;22217;-61
2023/07/12 05:37:55;;;;;;;3.90;3.50;;;19.30;99.90;;;;;;4989300;28;20489;-60
2023/07/12 05:40:25;;;;;;;5.00;3.60;;;19.30;99.90;;;;;;4987635;28;20554;-59
2023/07/12 05:42:53;;;;;;;3.97;3.17;;;19.30;99.90;;;;;;4988527;28;20503;-61
2023/07/12 05:45:21;;;;;;;4.80;3.40;;;19.40;99.90;;;;;;4986501;28;20491;-61
2023/07/12 05:47:49;;;;;;;3.37;3.17;;;19.40;99.90;;;;;;4986856;28;20488;-60
2023/07/12 05:50:19;;;;;;;3.53;3.33;;;19.40;99.90;;;;;;4983469;28;21068;-61
2023/07/12 05:52:47;;;;;;;5.43;3.50;;;19.40;99.90;;;;;;4983803;28;20586;-59
2023/07/12 05:55:18;;;;;;;3.87;3.57;;;19.40;99.90;;;;;;4989378;28;20475;-59
2023/07/12 05:57:48;;;;;;;4.50;4.10;;;19.40;99.90;;;;;;4997367;28;20575;-60
2023/07/12 06:00:18;;;;;;;3.93;3.53;;;19.40;99.90;;;;;;4991463;28;20504;-60
2023/07/12 06:02:46;;;;;;;4.10;3.73;;;19.40;99.90;;;;;;4994095;28;21320;-60
2023/07/12 06:05:14;;;;;;;4.23;3.87;;;19.30;99.90;;;;;;4992906;28;20496;-58
2023/07/12 06:07:42;;;;;;;3.63;3.33;;;19.40;99.90;;;;;;4991941;28;20487;-57
2023/07/12 06:10:11;;;;;;;4.30;3.87;;;19.40;99.90;;;;;;4994339;28;20591;-59
2023/07/12 06:12:39;;;;;;;3.47;3.20;;;19.40;99.90;;;;;;4993094;28;20475;-59
2023/07/12 06:15:10;;;;;;;4.13;3.77;;;19.40;99.90;;;;;;4996975;28;20563;-59
2023/07/12 06:17:38;;;;;;;4.40;3.47;;;19.40;99.90;;;;;;4990755;28;20484;-60
2023/07/12 06:20:07;;;;;;;4.10;3.70;;;19.40;99.90;;;;;;4990497;28;20484;-58
2023/07/12 06:22:36;;;;;;;4.07;3.77;;;19.40;99.90;;;;;;4984309;28;20862;-59
2023/07/12 06:25:06;;;;;;;4.40;3.70;;;19.50;99.90;;;;;;4991309;28;20533;-60
2023/07/12 06:27:34;;;;;;;4.53;4.13;;;19.50;99.90;;;;;;4995955;28;21124;-60
2023/07/12 06:30:03;;;;;;;3.60;3.40;;;19.40;99.90;;;;;;4998591;28;20566;-59
2023/07/12 06:32:32;;;;;;;4.87;3.53;;;19.40;99.90;;;;;;4992019;28;20475;-59
2023/07/12 06:35:00;;;;;;;4.23;3.90;;;19.40;99.90;;;;;;4992763;28;20503;-59
2023/07/12 06:37:28;;;;;;;3.80;3.50;;;19.40;99.90;;;;;;4998262;28;20499;-60
2023/07/12 06:39:56;;;;;;;4.40;4.00;;;19.40;99.90;;;;;;5000927;28;20568;-60
2023/07/12 06:42:25;;;;;;;4.07;3.70;;;19.40;99.90;;;;;;4991397;28;20475;-60
2023/07/12 06:44:53;;;;;;;4.83;4.30;;;19.40;99.90;;;;;;4986747;28;21509;-60
2023/07/12 06:47:21;;;;;;;4.00;3.70;;;19.50;99.90;;;;;;4998316;28;20569;-60
2023/07/12 06:49:51;;;;;;;4.50;4.07;;;19.50;99.90;;;;;;4997532;28;20480;-59
2023/07/12 06:52:19;;;;;;;4.73;4.20;;;19.60;99.90;;;;;;4994641;28;22310;-59
2023/07/12 06:54:47;;;;;;;4.10;3.80;;;19.60;99.90;;;;;;4995476;28;20585;-59
2023/07/12 06:57:15;;;;;;;5.03;4.43;;;19.70;99.90;;;;;;4994883;28;20492;-59
2023/07/12 06:59:43;;;;;;;5.07;4.60;;;19.70;99.90;;;;;;4997128;28;20564;-59
2023/07/12 07:02:11;;;;;;;5.60;4.87;;;19.80;99.90;;;;;;4988753;28;20587;-59
2023/07/12 07:04:39;;;;;;;4.80;4.30;;;19.80;99.90;;;;;;4998303;28;20925;-59
2023/07/12 07:07:09;;;;;;;4.50;4.10;;;19.80;99.90;;;;;;5000406;28;20568;-59
2023/07/12 07:09:38;;;;;;;4.90;4.50;;;19.80;99.90;;;;;;4998908;28;20934;-59
2023/07/12 07:12:07;;;;;;;5.47;5.00;;;19.80;99.90;;;;;;4988231;28;21140;-58
2023/07/12 07:14:35;;;;;;;5.10;4.80;;;19.80;99.90;;;;;;4988443;28;20546;-59
2023/07/12 07:17:04;;;;;;;5.33;4.93;;;19.80;99.90;;;;;;4997060;28;20484;-59
2023/07/12 07:19:32;;;;;;;4.77;4.47;;;19.90;99.90;;;;;;4998555;28;20567;-59
2023/07/12 07:22:00;;;;;;;5.40;4.90;;;19.90;99.90;;;;;;4995589;28;20602;-57
2023/07/12 07:24:29;;;;;;;6.00;4.83;;;19.80;99.90;;;;;;4995753;28;20488;-58
2023/07/12 07:26:57;;;;;;;4.83;4.47;;;19.80;99.90;;;;;;4993856;28;20489;-59
2023/07/12 07:29:25;;;;;;;4.97;4.57;;;19.70;99.90;;;;;;4984208;28;20531;-61
2023/07/12 07:31:53;;;;;;;4.90;4.50;;;19.60;99.90;;;;;;4992485;28;20473;-61
2023/07/12 07:34:21;;;;;;;4.40;4.10;;;19.50;99.90;;;;;;4985773;28;21074;-60
2023/07/12 07:36:49;;;;;;;3.43;3.23;;;19.60;99.90;;;;;;4991846;28;20575;-60
2023/07/12 07:39:17;;;;;;;3.60;3.13;;;19.60;99.90;;;;;;4992726;28;20469;-60
2023/07/12 07:41:47;;;;;;;4.60;3.80;;;19.60;99.90;;;;;;4992416;28;20484;-61
2023/07/12 07:44:15;;;;;;;3.70;2.93;;;19.60;99.90;;;;;;4984039;28;20547;-59
2023/07/12 07:46:43;;;;;;;3.40;3.10;;;19.70;99.90;;;;;;4988568;28;20517;-60
2023/07/12 07:49:11;;;;;;;3.20;3.00;;;19.70;99.90;;;;;;4986061;28;20490;-59
2023/07/12 07:51:39;;;;;;;5.30;3.70;;;19.70;99.90;;;;;;4983455;28;20568;-60
2023/07/12 07:54:07;;;;;;;3.50;3.20;;;19.70;99.90;;;;;;4983312;28;20581;-59
2023/07/12 07:56:35;;;;;;;3.17;2.97;;;19.80;99.90;;;;;;4983003;28;20560;-59
2023/07/12 07:59:06;;;;;;;5.33;3.73;;;19.90;99.90;;;;;;4983528;28;20473;-59
2023/07/12 08:01:34;;;;;;;3.53;3.27;;;19.80;99.90;;;;;;4988522;28;20598;-58
2023/07/12 08:04:04;;;;;;;3.70;3.40;;;19.80;99.90;;;;;;4992672;28;20894;-59
2023/07/12 08:06:33;;;;;;;4.20;3.80;;;19.90;99.90;;;;;;4984383;28;20488;-59
2023/07/12 08:09:01;;;;;;;3.80;3.40;;;20.00;99.90;;;;;;4985629;28;22447;-59
2023/07/12 08:11:29;;;;;;;4.93;3.40;;;20.10;99.90;;;;;;4994024;28;20536;-59
2023/07/12 08:13:57;;;;;;;3.37;3.10;;;20.20;99.90;;;;;;4988193;28;20488;-59
2023/07/12 08:16:30;;;;;;;3.83;3.50;;;20.20;99.90;;;;;;4980119;28;20650;-59
2023/07/12 08:18:58;;;;;;;3.40;3.10;;;20.20;99.90;;;;;;4992731;28;20974;-59
2023/07/12 08:21:26;;;;;;;3.23;2.57;;;20.20;99.90;;;;;;4992897;28;20468;-59
2023/07/12 08:23:55;;;;;;;3.80;3.50;;;20.30;99.90;;;;;;4990139;28;20757;-59
2023/07/12 08:26:23;;;;;;;6.80;3.30;;;20.40;99.90;;;;;;4989323;28;20472;-59
2023/07/12 08:28:51;;;;;;;3.77;3.17;;;20.40;99.90;;;;;;4990953;28;20568;-59
2023/07/12 08:31:19;;;;;;;3.60;3.30;;;20.50;99.90;;;;;;4994313;28;20603;-60
2023/07/12 08:33:49;;;;;;;3.03;2.73;;;20.60;99.90;;;;;;4994487;28;20493;-59
2023/07/12 08:36:17;;;;;;;3.47;3.20;;;20.60;99.90;;;;;;4989154;28;20831;-59
2023/07/12 08:38:45;;;;;;;3.00;2.80;;;20.70;99.90;;;;;;4993570;28;20934;-60
2023/07/12 08:41:15;;;;;;;4.27;3.27;;;20.70;99.90;;;;;;4985740;28;20473;-59
2023/07/12 08:43:44;;;;;;;3.20;2.90;;;20.70;99.90;;;;;;4989188;28;20583;-59
2023/07/12 08:46:16;;;;;;;3.83;3.13;;;20.50;99.90;;;;;;4996216;28;20931;-60
2023/07/12 08:48:45;;;;;;;3.33;3.03;;;20.50;99.90;;;;;;4994650;28;20496;-60
2023/07/12 08:51:18;;;;;;;4.83;3.17;;;20.50;99.90;;;;;;4998148;28;20465;-60
2023/07/12 08:53:47;;;;;;;3.43;3.17;;;20.50;99.90;;;;;;4990893;28;20484;-60
2023/07/12 08:56:18;;;;;;;5.17;3.70;;;20.60;99.90;;;;;;4995306;28;21282;-59
2023/07/12 08:58:50;;;;;;;3.83;3.53;;;20.70;99.90;;;;;;4992669;28;20584;-60
2023/07/12 09:01:41;;;;;;;3.47;3.00;;;20.80;99.90;;;;;;4989834;28;20476;-59
2023/07/12 09:04:26;;;;;;;4.63;3.40;;;20.90;99.90;;;;;;4992967;28;20530;-60
2023/07/12 09:06:57;;;;;;;4.97;3.40;;;20.90;99.90;;;;;;4996054;28;20968;-60
2023/07/12 09:09:26;;;;;;;3.40;3.10;;;21.00;99.90;;;;;;4991393;28;20475;-59
2023/07/12 09:11:54;;;;;;;5.80;3.93;;;21.00;99.90;;;;;;4991967;28;20468;-60
2023/07/12 09:14:25;;;;;;;3.77;3.47;;;21.00;99.90;;;;;;4989528;28;20504;-60
2023/07/12 09:16:58;;;;;;;6.17;3.90;;;20.90;99.90;;;;;;4991915;28;20563;-59
2023/07/12 09:19:29;;;;;;;3.87;3.57;;;20.90;99.90;;;;;;4992662;28;20567;-59
2023/07/12 09:22:01;;;;;;;3.93;3.63;;;20.90;99.90;;;;;;4981824;28;20479;-61
2023/07/12 09:24:31;;;;;;;3.67;3.13;;;21.00;99.90;;;;;;4993239;28;20503;-61
2023/07/12 09:27:04;;;;;;;4.93;3.63;;;21.00;99.90;;;;;;4987631;28;20557;-61
2023/07/12 09:29:34;;;;;;;3.83;3.53;;;21.10;99.90;;;;;;4988699;28;20519;-61
2023/07/12 09:32:03;;;;;;;4.10;3.50;;;21.10;99.90;;;;;;4991934;28;20504;-60
2023/07/12 09:34:37;;;;;;;3.60;3.30;;;21.20;99.90;;;;;;4987545;28;21908;-61
2023/07/12 09:37:15;;;;;;;4.73;3.37;;;21.20;99.90;;;;;;4990320;28;20502;-60
2023/07/12 09:39:56;;;;;;;4.60;3.57;;;21.30;99.90;;;;;;4988504;28;21126;-60
2023/07/12 09:42:24;;;;;;;3.73;3.43;;;21.50;99.90;;;;;;4990149;28;20575;-61
2023/07/12 09:44:53;;;;;;;5.63;3.27;;;21.60;99.90;;;;;;4994049;28;20467;-61
2023/07/12 09:47:40;;;;;;;3.20;2.90;;;21.70;99.90;;;;;;4989298;28;20494;-61
2023/07/12 09:50:16;;;;;;;4.87;3.53;;;21.70;99.90;;;;;;4995424;28;20998;-60
2023/07/12 09:52:58;;;;;;;3.33;3.10;;;21.80;99.90;;;;;;4993395;28;20479;-60
2023/07/12 09:55:35;;;;;;;4.07;3.50;;;21.70;99.90;;;;;;4993447;28;20547;-61
2023/07/12 09:58:12;;;;;;;5.20;4.43;;;21.70;99.90;;;;;;4994536;28;20512;-61
2023/07/12 10:00:47;;;;;;;4.80;4.03;;;21.70;99.90;;;;;;4991846;28;20479;-61
2023/07/12 10:03:21;;;;;;;4.37;3.87;;;21.80;99.90;;;;;;4994473;28;20557;-61
2023/07/12 10:05:56;;;;;;;7.13;4.53;;;21.90;99.90;;;;;;4994841;28;20627;-60
2023/07/12 10:08:30;;;;;;;4.40;4.07;;;22.00;99.90;;;;;;4993405;28;20550;-61
2023/07/12 10:11:06;;;;;;;5.30;4.20;;;22.00;99.90;;;;;;4990471;28;20554;-61
2023/07/12 10:13:40;;;;;;;6.13;4.03;;;22.20;99.90;;;;;;4995120;28;20483;-61
2023/07/12 10:16:15;;;;;;;5.03;4.27;;;22.30;99.90;;;;;;4996443;28;20479;-61
2023/07/12 10:18:46;;;;;;;4.73;3.70;;;22.40;99.90;;;;;;4988092;28;20626;-61
2023/07/12 10:21:18;;;;;;;5.73;3.60;;;22.50;99.90;;;;;;4996815;28;20471;-61
2023/07/12 10:23:52;;;;;;;4.90;3.90;;;22.50;99.90;;;;;;4993766;28;20611;-61
2023/07/12 10:26:20;;;;;;;5.03;3.80;;;22.60;99.90;;;;;;4990561;28;20516;-61
2023/07/12 10:28:56;;;;;;;4.00;3.53;;;22.70;99.90;;;;;;4985045;28;20532;-60
2023/07/12 10:31:33;;;;;;;7.27;4.30;;;22.90;99.90;;;;;;4993797;28;20476;-61
2023/07/12 10:34:12;;;;;;;4.67;4.20;;;23.00;99.90;;;;;;4998703;28;20495;-60
2023/07/12 10:36:40;;;;;;;5.17;3.70;;;23.10;99.90;;;;;;4997490;28;20564;-61
2023/07/12 10:39:11;;;;;;;5.37;3.50;;;23.10;99.90;;;;;;4984988;28;20480;-61
2023/07/12 10:41:46;;;;;;;4.67;3.30;;;23.10;99.90;;;;;;4988152;28;20564;-61
2023/07/12 10:44:19;;;;;;;6.80;3.80;;;23.10;99.90;;;;;;4992536;28;20583;-60
2023/07/12 10:46:52;;;;;;;4.17;3.77;;;23.20;99.90;;;;;;4999183;28;21023;-62
2023/07/12 10:49:37;;;;;;;4.27;3.60;;;23.30;99.90;;;;;;4997699;28;20495;-61
2023/07/12 10:52:16;;;;;;;7.47;3.37;;;23.40;99.90;;;;;;4998755;28;21012;-61
2023/07/12 10:55:16;;;;;;;6.63;4.13;;;23.40;99.90;;;;;;4990925;28;20533;-60
2023/07/12 10:57:47;;;;;;;5.30;4.10;;;23.40;99.90;;;;;;4997577;28;20538;-61
2023/07/12 11:00:26;;;;;;;4.57;4.17;;;23.20;99.90;;;;;;4997197;28;20476;-61
2023/07/12 11:03:20;;;;;;;5.37;3.43;;;23.10;99.90;;;;;;4993891;28;20506;-61
2023/07/12 11:06:00;;;;;;;5.00;3.47;;;23.10;99.90;;;;;;4996924;28;20473;-60
2023/07/12 11:08:40;;;;;;;6.30;4.40;;;23.10;99.90;;;;;;4997295;28;20837;-58
2023/07/12 11:11:36;;;;;;;5.90;3.80;;;23.20;99.90;;;;;;4990044;28;20603;-60
2023/07/12 11:14:20;;;;;;;5.10;3.90;;;23.10;99.90;;;;;;4995097;28;20573;-61
2023/07/12 11:16:52;;;;;;;4.57;3.90;;;23.10;99.90;;;;;;4994032;28;20561;-60
2023/07/12 11:19:37;;;;;;;4.33;3.40;;;23.00;99.90;;;;;;4994587;28;20522;-61
2023/07/12 11:22:12;;;;;;;7.13;4.17;;;23.00;99.90;;;;;;4996097;28;20513;-61
2023/07/12 11:24:48;;;;;;;4.60;4.20;;;22.90;99.90;;;;;;4993096;28;20576;-61
2023/07/12 11:27:32;;;;;;;4.20;3.80;;;23.00;99.90;;;;;;4995196;28;20588;-61
2023/07/12 11:30:20;;;;;;;3.80;3.50;;;23.10;99.90;;;;;;4993642;28;20496;-61
2023/07/12 11:32:49;;;;;;;3.67;3.37;;;23.30;99.90;;;;;;4997700;28;21010;-61
2023/07/12 11:35:21;;;;;;;4.80;3.40;;;23.20;99.90;;;;;;5001321;28;20531;-61
2023/07/12 11:37:53;;;;;;;4.20;3.47;;;23.20;99.90;;;;;;4995596;28;20488;-61
2023/07/12 11:40:23;;;;;;;5.47;3.63;;;23.30;99.90;;;;;;4995292;28;20855;-61
2023/07/12 11:42:52;;;;;;;6.97;3.77;;;23.40;99.90;;;;;;4989624;28;20587;-61
2023/07/12 11:45:22;;;;;;;3.50;3.20;;;23.50;99.90;;;;;;4993920;28;21315;-62
2023/07/12 11:47:54;;;;;;;3.50;3.17;;;23.60;99.90;;;;;;4993444;28;20488;-61
2023/07/12 11:50:26;;;;;;;3.73;3.07;;;23.70;99.90;;;;;;4985914;28;20520;-61
2023/07/12 11:52:55;;;;;;;4.73;3.43;;;23.70;99.90;;;;;;4993434;28;20493;-59
2023/07/12 11:55:27;;;;;;;4.90;3.80;;;23.80;99.90;;;;;;4993117;28;20603;-59
2023/07/12 11:57:57;;;;;;;4.10;3.80;;;23.80;99.90;;;;;;4991369;28;20496;-59
2023/07/12 12:00:28;;;;;;;3.87;3.47;;;23.70;99.90;;;;;;4995067;28;20544;-59
2023/07/12 12:02:58;;;;;;;4.20;3.80;;;23.60;99.90;;;;;;4994176;28;20524;-58
2023/07/12 12:05:32;;;;;;;4.03;3.67;;;23.50;99.90;;;;;;4995172;28;20849;-58
2023/07/12 12:08:01;;;;;;;3.90;3.60;;;23.40;99.90;;;;;;4989385;28;20496;-59
2023/07/12 12:10:32;;;;;;;3.80;3.40;;;23.20;99.90;;;;;;4989578;28;20656;-59
2023/07/12 12:13:01;;;;;;;3.57;3.23;;;23.10;99.90;;;;;;4996655;28;20488;-60
2023/07/12 12:15:31;;;;;;;5.07;3.37;;;23.20;99.90;;;;;;4990530;28;21661;-59
2023/07/12 12:18:06;;;;;;;4.13;3.73;;;23.20;99.90;;;;;;4988690;28;20591;-59
2023/07/12 12:20:36;;;;;;;5.70;3.83;;;23.30;99.90;;;;;;4986406;28;20463;-60
2023/07/12 12:23:14;;;;;;;5.37;3.77;;;23.30;99.90;;;;;;4988369;28;20499;-59
2023/07/12 12:25:47;;;;;;;5.10;3.43;;;23.30;99.90;;;;;;4987905;28;21412;-59
2023/07/12 12:28:25;;;;;;;5.90;3.40;;;23.40;99.90;;;;;;4989925;28;20580;-60
2023/07/12 12:31:01;;;;;;;5.97;3.97;;;23.40;99.90;;;;;;4996023;28;20507;-60
2023/07/12 12:33:30;;;;;;;3.93;3.17;;;23.40;99.90;;;;;;4989187;28;20489;-59
2023/07/12 12:36:00;;;;;;;3.73;3.40;;;23.30;99.90;;;;;;4982568;28;20474;-59
2023/07/12 12:38:32;;;;;;;5.00;3.67;;;23.10;99.90;;;;;;4995169;28;20524;-60
2023/07/12 12:41:10;;;;;;;3.53;3.20;;;23.10;99.90;;;;;;4990552;28;20599;-59
2023/07/12 12:43:55;;;;;;;3.50;3.20;;;23.10;99.90;;;;;;4990632;28;20495;-60
2023/07/12 12:46:23;;;;;;;3.30;2.10;;;23.10;99.90;;;;;;4988950;28;20468;-60
2023/07/12 12:48:53;;;;;;;2.47;2.30;;;22.90;99.90;;;;;;4994953;28;20930;-60
2023/07/12 12:51:25;;;;;;;2.50;1.83;;;22.70;99.90;;;;;;4971455;28;20465;-61
2023/07/12 12:53:57;;;;;;;3.30;2.03;;;22.60;99.90;;;;;;4974716;28;20493;-61
2023/07/12 12:56:36;;;;;;;2.43;2.00;;;22.40;99.90;;;;;;4973124;28;21015;-61
2023/07/12 12:59:10;;;;;;;3.40;2.43;;;22.30;99.90;;;;;;4972931;28;20495;-61
2023/07/12 13:01:42;;;;;;;2.43;2.03;;;22.10;99.90;;;;;;4969696;28;20946;-60
2023/07/12 13:04:30;;;;;;;2.73;1.80;;;21.90;99.90;;;;;;4967638;28;20481;-61